Terminal Aerodrome Forecast
Issued by NWS

Current Version | Previous Version | Text Only | Print | Product List | Glossary Off
Versions: 1 2 3 4 5 6 7 8 9 10 11 12 13 14 15 16 17 18 19 20 21

000
FTUS41 KILN 191400 AAA
TAFLCK
TAF AMD
KLCK 191446Z 1915/2012 28005KT P6SM FEW035 SCT250
      TEMPO 1916/1918 BKN022
     FM192000 24006KT P6SM SKC
     FM201100 21010KT P6SM BKN100=

USA.gov is the U.S. government's official web portal to all federal, state and local government web resources and services.